NCAR-RAP Real-Time Weather Data

Output produced by METARs form (08 May 2021  01:33 UTC)
found at http://weather.rap.ucar.edu/surface/
 
KAOO 080053Z AUTO 31005KT 10SM CLR 06/02 A2990 RMK AO2 SLP131 T00610022
KAOO 080013Z AUTO 30010KT 10SM FEW024 SCT029 SCT036 07/03 A2990 RMK AO2 T00720028
KAOO 072353Z AUTO 31009KT 10SM FEW024 BKN029 OVC036 08/03 A2989 RMK AO2 SLP128 60011 T00780028 10089 20072 53007
KAOO 072335Z AUTO 31011KT 10SM BKN026 BKN030 08/03 A2989 RMK AO2 T00780028
KAOO 072310Z AUTO 30011G16KT 10SM SCT023 BKN035 08/03 A2988 RMK AO2 T00830033
KAOO 072253Z AUTO 31008KT 10SM SCT022 BKN027 OVC033 08/03 A2988 RMK AO2 SLP125 T00830033
KAOO 072153Z AUTO 30010KT 10SM SCT015 BKN022 OVC030 08/04 A2988 RMK AO2 RAE19 SLP126 P0000 T00780039
KAOO 072053Z AUTO 29010KT 10SM -RA BKN020 BKN030 OVC037 08/04 A2987 RMK AO2 SLP123 P0002 60011 T00780044 53004
KAOO 071953Z AUTO 29008KT 9SM -RA BKN016 BKN024 OVC038 09/06 A2986 RMK AO2 SLP116 P0005 T00890056
KAOO 071853Z AUTO 30006KT 5SM -RA BKN036 OVC046 09/06 A2986 RMK AO2 SLP117 P0004 T00890061
KAOO 071753Z AUTO 30012KT 6SM -RA BKN039 OVC047 09/06 A2985 RMK AO2 WSHFT 1719 RAB28 SLP115 P0001 60001 T00890061 10150 20061 55004
KAOO 071739Z AUTO 30011G19KT 10SM -RA FEW032 BKN039 OVC047 09/05 A2985 RMK AO2 WSHFT 1719 RAB28 P0000 T00890050
KAOO 071653Z AUTO VRB05KT 10SM BKN045 OVC050 13/02 A2983 RMK AO2 SLP104 T01330022
KAOO 071553Z AUTO 10007KT 10SM FEW040 BKN055 OVC095 15/03 A2985 RMK AO2 SLP109 T01500028
KAOO 071453Z AUTO 36003KT 10SM FEW060 OVC090 12/02 A2987 RMK AO2 SLP117 T01170022 56008
KAOO 071353Z AUTO 01004KT 10SM FEW055 10/02 A2987 RMK AO2 SLP119 T01000017
KAOO 071253Z AUTO 02004KT 10SM BKN049 BKN065 OVC090 08/02 A2988 RMK AO2 SLP124 T00830022
KAOO 071153Z AUTO 00000KT 10SM BKN095 OVC110 06/03 A2989 RMK AO2 SLP126 T00610028 10067 20033 56000
KAOO 071053Z AUTO 07003KT 10SM BKN110 05/01 A2989 RMK AO2 SLP127 T00500006
KAOO 070953Z AUTO 00000KT 10SM FEW065 04/01 A2989 RMK AO2 SLP125 T00440011